Terminal Aerodrome Forecast
Issued by NWS Wilmington, OH

Current Version | Previous Version | Text Only | Print | Product List | Glossary Off
Versions: 1 2 3 4 5 6 7 8 9 10 11 12 13 14 15 16 17 18 19 20 21 22 23 24 25 26

770
FTUS41 KILN 160539
TAFCVG
TAF
KCVG 160539Z 1606/1712 29011KT 3SM -SHRA OVC040
      TEMPO 1607/1611 OVC025
     FM161100 34012G20KT P6SM -SHRA SCT015 OVC025
     FM161600 33011G19KT P6SM BKN025
     FM162300 36008KT P6SM BKN025
     FM170600 VRB03KT P6SM SCT025=

USA.gov is the U.S. government's official web portal to all federal, state and local government web resources and services.